Time;durP1;ratioP1;P1;durP2;ratioP2;P2;SDS_P1;SDS_P2;PMS_P1;PMS_P2;Temp;Humidity;BMP_temperature;BMP_pressure;BME280_temperature;BME280_humidity;BME280_pressure;Samples;Min_cycle;Max_cycle;Signal;HPM_P1;HPM_P2
2023/09/06 00:00:34;;;;;;;106.07;57.50;;;21.90;90.20;;;;;;4971957;28;94591;-47
2023/09/06 00:03:00;;;;;;;106.78;57.97;;;21.90;90.00;;;;;;4967921;28;94865;-47
2023/09/06 00:05:26;;;;;;;106.93;57.53;;;21.90;90.00;;;;;;4967830;28;96489;-48
2023/09/06 00:07:52;;;;;;;105.80;57.83;;;21.80;89.90;;;;;;4971139;28;99083;-46
2023/09/06 00:10:18;;;;;;;106.13;58.00;;;21.80;90.00;;;;;;4965598;28;98458;-47
2023/09/06 00:12:45;;;;;;;106.70;57.75;;;21.80;90.00;;;;;;4968216;28;96826;-46
2023/09/06 00:15:11;;;;;;;105.57;57.60;;;21.80;90.10;;;;;;4972249;28;95460;-46
2023/09/06 00:17:38;;;;;;;108.35;58.08;;;21.80;90.10;;;;;;4973304;28;94947;-47
2023/09/06 00:20:19;;;;;;;105.75;57.67;;;21.70;90.60;;;;;;4968297;28;97968;-47
2023/09/06 00:22:53;;;;;;;106.03;57.88;;;21.70;90.20;;;;;;4962768;28;96486;-46
2023/09/06 00:25:19;;;;;;;105.50;57.58;;;21.70;90.50;;;;;;4971185;28;94572;-46
2023/09/06 00:27:44;;;;;;;104.95;57.47;;;21.70;90.30;;;;;;4969248;28;96132;-46
2023/09/06 00:30:10;;;;;;;107.00;58.15;;;21.70;90.40;;;;;;4972640;28;95181;-47
2023/09/06 00:32:36;;;;;;;105.75;57.85;;;21.70;90.40;;;;;;4976036;28;95900;-47
2023/09/06 00:35:01;;;;;;;106.07;57.80;;;21.70;90.40;;;;;;4957630;28;95554;-47
2023/09/06 00:37:37;;;;;;;105.05;57.47;;;21.70;90.50;;;;;;4969217;28;95364;-46
2023/09/06 00:40:19;;;;;;;105.30;57.25;;;21.60;90.50;;;;;;4966446;28;94717;-46
2023/09/06 00:42:59;;;;;;;105.75;57.63;;;21.60;90.60;;;;;;4964990;28;94667;-46
2023/09/06 00:45:30;;;;;;;105.77;57.53;;;21.60;90.60;;;;;;4971273;28;95912;-46
2023/09/06 00:47:57;;;;;;;;;;;21.60;90.70;;;;;;4968951;28;95072;-50
2023/09/06 00:50:25;;;;;;;106.22;57.90;;;21.60;90.80;;;;;;4973541;28;94261;-47
2023/09/06 00:52:52;;;;;;;106.40;57.22;;;21.50;90.70;;;;;;4954914;28;96355;-46
2023/09/06 00:55:19;;;;;;;105.40;57.60;;;21.60;90.80;;;;;;4969327;28;94924;-47
2023/09/06 00:57:45;;;;;;;107.50;57.75;;;21.50;90.80;;;;;;4969001;28;96484;-47
2023/09/06 01:00:16;;;;;;;106.38;57.97;;;21.50;90.70;;;;;;4964559;28;95773;-47
2023/09/06 01:02:59;;;;;;;105.10;57.38;;;21.50;91.00;;;;;;1187908;22;97159;-46
2023/09/06 01:05:28;;;;;;;105.15;57.33;;;21.50;91.00;;;;;;4962524;28;95694;-48
2023/09/06 01:08:00;;;;;;;105.95;57.92;;;21.40;90.90;;;;;;4954870;28;99801;-46
2023/09/06 01:10:26;;;;;;;104.82;57.22;;;21.40;91.10;;;;;;4969945;28;95046;-46
2023/09/06 01:12:55;;;;;;;105.28;57.53;;;21.50;91.20;;;;;;4953298;28;94843;-45
2023/09/06 01:15:22;;;;;;;107.47;57.72;;;21.40;91.10;;;;;;4960033;28;96256;-49
2023/09/06 01:17:50;;;;;;;105.50;57.63;;;21.40;91.10;;;;;;4966670;28;94729;-47
2023/09/06 01:20:36;;;;;;;105.60;57.80;;;21.40;91.10;;;;;;4960536;28;96489;-45
2023/09/06 01:23:20;;;;;;;105.10;57.50;;;21.40;91.20;;;;;;4957382;28;97918;-48
2023/09/06 01:25:46;;;;;;;105.22;57.10;;;21.40;91.40;;;;;;4967129;28;96800;-46
2023/09/06 01:28:12;;;;;;;105.18;57.05;;;21.40;91.20;;;;;;4958365;28;96301;-45
2023/09/06 01:30:37;;;;;;;108.35;57.38;;;21.40;91.20;;;;;;4963752;28;95473;-46
2023/09/06 01:33:03;;;;;;;105.93;57.65;;;21.30;91.20;;;;;;4964668;28;95144;-45
2023/09/06 01:35:29;;;;;;;104.85;57.58;;;21.30;91.30;;;;;;4967184;28;95706;-45
2023/09/06 01:37:54;;;;;;;106.10;57.17;;;21.30;91.30;;;;;;4958494;28;97552;-46
2023/09/06 01:40:21;;;;;;;105.35;57.55;;;21.30;91.40;;;;;;4969053;28;96829;-46
2023/09/06 01:42:47;;;;;;;104.22;57.22;;;21.30;91.30;;;;;;4972764;28;95107;-49
2023/09/06 01:45:17;;;;;;;104.68;57.45;;;21.30;91.20;;;;;;4963726;28;95346;-46
2023/09/06 01:47:49;;;;;;;105.00;57.25;;;21.20;91.40;;;;;;4965409;28;97490;-46
2023/09/06 01:50:20;;;;;;;106.65;57.50;;;21.20;91.50;;;;;;4965708;28;95196;-46
2023/09/06 01:52:48;;;;;;;;;;;21.20;91.40;;;;;;4957036;28;97361;-46
2023/09/06 01:55:14;;;;;;;105.60;57.00;;;21.20;91.50;;;;;;4964893;28;95238;-46
2023/09/06 01:57:40;;;;;;;106.30;57.33;;;21.20;91.60;;;;;;4958151;28;95403;-47
2023/09/06 02:00:27;;;;;;;105.50;57.65;;;21.20;91.70;;;;;;4961007;28;95492;-47
2023/09/06 02:02:57;;;;;;;105.30;57.53;;;21.10;91.60;;;;;;4956138;28;94894;-46
2023/09/06 02:05:23;;;;;;;104.50;57.28;;;21.10;91.70;;;;;;4958275;28;95387;-46
2023/09/06 02:07:49;;;;;;;105.82;57.55;;;21.10;91.80;;;;;;4961831;28;96830;-47
2023/09/06 02:10:14;;;;;;;104.20;57.25;;;21.10;91.70;;;;;;4960830;28;97041;-46
2023/09/06 02:12:40;;;;;;;105.03;57.47;;;21.10;91.60;;;;;;4967284;28;97102;-46
2023/09/06 02:15:08;;;;;;;105.47;57.63;;;21.10;91.80;;;;;;4961955;28;97846;-46
2023/09/06 02:17:37;;;;;;;104.63;57.28;;;21.10;91.80;;;;;;4963751;28;94728;-45
2023/09/06 02:22:57;;;;;;;106.22;57.63;;;21.10;92.00;;;;;;4941228;28;99619;-46
2023/09/06 02:25:30;;;;;;;105.20;56.85;;;21.10;92.10;;;;;;4963218;28;99814;-46
2023/09/06 02:27:56;;;;;;;103.78;57.03;;;21.00;91.80;;;;;;4957024;28;97219;-46
2023/09/06 02:30:22;;;;;;;104.55;57.50;;;21.00;91.90;;;;;;4961721;28;94546;-46
2023/09/06 02:32:49;;;;;;;105.63;57.47;;;21.00;91.90;;;;;;4962440;28;98059;-46
2023/09/06 02:35:15;;;;;;;105.30;57.03;;;21.00;92.30;;;;;;4964449;28;97949;-45
2023/09/06 02:37:41;;;;;;;105.13;57.17;;;21.00;92.10;;;;;;4963940;28;98284;-48
2023/09/06 02:40:13;;;;;;;104.32;56.88;;;21.00;92.40;;;;;;4958402;28;96066;-46
2023/09/06 02:42:43;;;;;;;104.22;57.25;;;21.00;92.00;;;;;;4952898;28;96120;-46
2023/09/06 02:45:13;;;;;;;105.00;57.38;;;21.00;91.90;;;;;;4958404;28;99362;-47
2023/09/06 02:47:50;;;;;;;104.25;57.28;;;20.90;92.10;;;;;;4959767;28;94838;-46
2023/09/06 02:50:17;;;;;;;105.07;57.40;;;20.90;92.20;;;;;;4969638;28;95208;-50
2023/09/06 02:52:47;;;;;;;105.50;57.25;;;20.90;92.10;;;;;;4957246;28;98086;-49
2023/09/06 02:55:13;;;;;;;103.30;56.72;;;20.90;92.20;;;;;;4964828;28;96023;-48
2023/09/06 02:57:43;;;;;;;106.15;56.80;;;20.90;92.40;;;;;;4960401;28;97166;-49
2023/09/06 03:00:24;;;;;;;104.30;57.08;;;20.90;92.10;;;;;;4965759;28;95733;-45
2023/09/06 03:02:52;;;;;;;104.80;56.92;;;20.90;92.50;;;;;;4967169;28;95613;-49
2023/09/06 03:05:18;;;;;;;103.65;56.67;;;20.90;92.70;;;;;;4955657;28;95532;-46
2023/09/06 03:07:48;;;;;;;104.18;57.10;;;20.90;92.50;;;;;;4960424;28;94934;-45
2023/09/06 03:10:15;;;;;;;104.78;57.00;;;20.80;92.20;;;;;;4957754;28;96802;-46
2023/09/06 03:12:43;;;;;;;106.68;57.65;;;20.80;92.40;;;;;;4964623;28;95193;-48
2023/09/06 03:15:10;;;;;;;105.40;57.22;;;20.80;92.50;;;;;;4966811;28;95136;-47
2023/09/06 03:17:36;;;;;;;104.90;57.15;;;20.80;92.30;;;;;;4958043;28;95285;-47
2023/09/06 03:20:18;;;;;;;104.18;56.85;;;20.80;92.40;;;;;;4959694;28;97361;-46
2023/09/06 03:22:46;;;;;;;104.35;56.92;;;20.80;92.40;;;;;;4962904;28;95369;-47
2023/09/06 03:25:14;;;;;;;104.20;57.13;;;20.80;92.80;;;;;;4961655;28;94820;-47
2023/09/06 03:27:41;;;;;;;103.95;56.90;;;20.80;92.40;;;;;;4965917;28;96328;-47
2023/09/06 03:30:08;;;;;;;103.93;56.97;;;20.80;92.60;;;;;;4963206;28;94999;-47
2023/09/06 03:32:34;;;;;;;104.97;57.28;;;20.70;92.60;;;;;;4970864;28;94669;-47
2023/09/06 03:35:00;;;;;;;104.20;57.15;;;20.70;92.80;;;;;;4959516;28;96118;-47
2023/09/06 03:37:28;;;;;;;104.03;56.90;;;20.70;92.40;;;;;;4970843;28;94980;-49
2023/09/06 03:39:54;;;;;;;103.63;56.85;;;20.70;92.60;;;;;;4964034;28;95179;-48
2023/09/06 03:42:23;;;;;;;104.78;56.83;;;20.70;92.80;;;;;;4970372;28;99320;-48
2023/09/06 03:44:49;;;;;;;103.88;56.45;;;20.70;92.70;;;;;;4972518;28;93968;-47
2023/09/06 03:47:16;;;;;;;104.07;56.88;;;20.70;92.70;;;;;;4965612;28;97088;-47
2023/09/06 03:49:43;;;;;;;103.93;57.10;;;20.60;92.70;;;;;;4967847;28;95008;-46
2023/09/06 03:52:10;;;;;;;102.80;56.55;;;20.60;92.90;;;;;;4962320;28;96275;-46
2023/09/06 03:54:37;;;;;;;103.75;56.50;;;20.60;92.70;;;;;;4967930;28;94890;-47
2023/09/06 03:57:03;;;;;;;105.25;57.20;;;20.60;92.80;;;;;;4958179;28;98463;-47
2023/09/06 03:59:35;;;;;;;104.32;56.88;;;20.60;93.00;;;;;;4951743;28;96142;-47
2023/09/06 04:02:07;;;;;;;103.97;56.97;;;20.60;92.90;;;;;;4969385;28;96153;-46
2023/09/06 04:04:34;;;;;;;105.43;56.40;;;20.60;92.90;;;;;;4963612;28;95187;-47
2023/09/06 04:07:00;;;;;;;104.72;57.05;;;20.60;92.70;;;;;;4966370;28;95881;-48
2023/09/06 04:09:30;;;;;;;103.43;56.88;;;20.60;93.00;;;;;;4964512;28;94548;-48
2023/09/06 04:11:58;;;;;;;103.03;56.63;;;20.50;92.80;;;;;;4965220;28;95254;-48
2023/09/06 04:14:24;;;;;;;103.30;56.78;;;20.50;92.90;;;;;;4970150;28;94952;-48
2023/09/06 04:16:50;;;;;;;103.53;57.08;;;20.50;93.10;;;;;;4967644;28;95775;-46
2023/09/06 04:19:16;;;;;;;103.10;56.55;;;20.50;92.90;;;;;;4967685;28;94956;-49
2023/09/06 04:21:41;;;;;;;105.28;56.97;;;20.50;93.20;;;;;;4965707;28;94713;-49
2023/09/06 04:24:07;;;;;;;105.85;56.72;;;20.50;93.00;;;;;;4952701;28;95326;-46
2023/09/06 04:26:34;;;;;;;103.00;55.97;;;20.40;93.10;;;;;;4957543;28;96490;-47
2023/09/06 04:29:03;;;;;;;104.55;56.55;;;20.40;93.10;;;;;;4966263;28;96103;-47
2023/09/06 04:31:30;;;;;;;104.20;56.72;;;20.40;93.10;;;;;;4959346;28;95595;-47
2023/09/06 04:33:58;;;;;;;107.72;56.78;;;20.40;93.40;;;;;;4950423;28;96889;-46
2023/09/06 04:36:23;;;;;;;104.15;56.63;;;20.40;93.40;;;;;;4968845;28;96238;-48
2023/09/06 04:38:49;;;;;;;103.35;56.60;;;20.40;93.20;;;;;;4966112;28;98003;-46
2023/09/06 04:41:15;;;;;;;104.30;56.45;;;20.30;93.10;;;;;;4960937;28;103238;-48
2023/09/06 04:43:40;;;;;;;105.22;56.80;;;20.30;93.60;;;;;;4970150;28;97575;-47
2023/09/06 04:46:06;;;;;;;103.05;56.55;;;20.40;93.50;;;;;;4967363;28;94580;-46
2023/09/06 04:48:32;;;;;;;104.22;56.67;;;20.30;93.30;;;;;;4972721;28;95150;-48
2023/09/06 04:50:59;;;;;;;102.90;56.30;;;20.30;93.40;;;;;;4965676;28;94738;-48
2023/09/06 04:53:24;;;;;;;102.70;56.47;;;20.30;93.20;;;;;;4969774;28;100829;-48
2023/09/06 04:55:52;;;;;;;105.07;56.72;;;20.30;93.40;;;;;;4968485;28;94785;-47
2023/09/06 04:58:18;;;;;;;102.53;56.35;;;20.30;93.50;;;;;;4962963;28;95149;-47
2023/09/06 05:00:47;;;;;;;104.07;56.47;;;20.30;93.80;;;;;;4969179;28;96029;-49
2023/09/06 05:03:17;;;;;;;103.25;56.53;;;20.30;93.90;;;;;;4970541;28;95024;-46
2023/09/06 05:05:43;;;;;;;103.80;56.90;;;20.30;93.70;;;;;;4961857;28;97343;-52
2023/09/06 05:08:09;;;;;;;103.45;56.65;;;20.30;93.50;;;;;;4963530;28;95723;-46
2023/09/06 05:10:35;;;;;;;104.45;56.55;;;20.20;93.60;;;;;;4964518;28;94479;-47
2023/09/06 05:13:01;;;;;;;103.63;56.78;;;20.30;93.80;;;;;;4964202;28;94815;-49
2023/09/06 05:15:28;;;;;;;103.95;56.67;;;20.20;93.60;;;;;;4959676;28;95050;-47
2023/09/06 05:17:53;;;;;;;103.97;56.83;;;20.20;93.80;;;;;;4971425;28;95527;-47
2023/09/06 05:20:32;;;;;;;104.88;56.40;;;20.20;93.40;;;;;;4958955;28;97994;-47
2023/09/06 05:23:03;;;;;;;105.03;56.60;;;20.20;93.40;;;;;;4962249;28;93923;-47
2023/09/06 05:25:30;;;;;;;103.97;56.42;;;20.20;93.40;;;;;;4958878;28;97757;-47
2023/09/06 05:28:01;;;;;;;105.25;56.63;;;20.20;93.10;;;;;;4966176;28;94963;-46
2023/09/06 05:30:27;;;;;;;103.40;56.33;;;20.20;93.90;;;;;;4972529;28;95617;-47
2023/09/06 05:32:56;;;;;;;104.05;56.50;;;20.20;93.80;;;;;;4965110;28;95395;-46
2023/09/06 05:35:25;;;;;;;105.20;56.65;;;20.20;94.10;;;;;;4966509;28;96785;-47
2023/09/06 05:37:51;;;;;;;104.57;56.83;;;20.20;93.80;;;;;;4967105;28;95224;-48
2023/09/06 05:40:22;;;;;;;103.35;56.28;;;20.20;94.00;;;;;;4959062;28;94786;-47
2023/09/06 05:42:49;;;;;;;105.10;56.70;;;20.20;93.80;;;;;;4959481;28;95420;-46
2023/09/06 05:45:14;;;;;;;104.47;56.65;;;20.20;94.00;;;;;;4963989;28;94639;-46
2023/09/06 05:47:40;;;;;;;105.03;57.03;;;20.20;94.00;;;;;;4964692;28;95061;-47
2023/09/06 05:50:06;;;;;;;107.03;57.22;;;20.20;93.80;;;;;;4968499;28;96535;-46
2023/09/06 05:52:33;;;;;;;105.38;56.72;;;20.20;93.80;;;;;;4964396;28;95875;-48
2023/09/06 05:54:58;;;;;;;107.22;57.60;;;20.20;94.50;;;;;;4966347;28;96197;-46
2023/09/06 05:57:24;;;;;;;107.68;57.22;;;20.30;97.10;;;;;;4962425;28;97707;-46
2023/09/06 05:59:50;;;;;;;107.95;56.85;;;20.30;93.50;;;;;;4964316;28;95108;-46
2023/09/06 06:02:16;;;;;;;106.15;57.85;;;19.90;94.50;;;;;;4956175;28;96001;-46
2023/09/06 06:04:45;;;;;;;106.97;57.55;;;19.70;95.00;;;;;;4948906;28;95498;-45
2023/09/06 06:07:11;;;;;;;112.38;57.33;;;19.70;95.60;;;;;;4957112;28;96028;-46
2023/09/06 06:09:37;;;;;;;108.80;57.17;;;19.50;96.00;;;;;;4959432;28;99493;-46
2023/09/06 06:12:03;;;;;;;107.03;57.15;;;19.40;96.50;;;;;;4964163;28;95405;-46
2023/09/06 06:14:30;;;;;;;102.93;57.30;;;19.40;97.00;;;;;;4956384;28;98160;-46
2023/09/06 06:16:57;;;;;;;106.68;58.13;;;19.30;97.10;;;;;;4968795;28;94641;-44
2023/09/06 06:19:23;;;;;;;107.35;57.42;;;19.40;97.20;;;;;;4971671;28;96141;-44
2023/09/06 06:21:49;;;;;;;107.30;57.92;;;19.40;97.60;;;;;;4949494;28;97394;-44
2023/09/06 06:24:14;;;;;;;106.75;58.20;;;19.30;97.80;;;;;;4964137;28;99657;-44
2023/09/06 06:26:40;;;;;;;107.35;57.63;;;19.30;97.60;;;;;;4962550;28;95397;-44
2023/09/06 06:29:06;;;;;;;110.85;58.08;;;19.40;97.80;;;;;;4964791;28;95541;-44
2023/09/06 06:31:32;;;;;;;108.45;57.70;;;19.50;98.10;;;;;;4956029;28;94756;-44
2023/09/06 06:33:59;;;;;;;106.55;57.67;;;19.50;97.80;;;;;;4949247;28;96516;-44
2023/09/06 06:36:25;;;;;;;109.80;58.22;;;19.60;97.60;;;;;;4962968;28;95491;-44
2023/09/06 06:38:51;;;;;;;107.20;57.88;;;19.70;96.80;;;;;;4960417;28;95766;-44
2023/09/06 06:41:20;;;;;;;107.43;57.65;;;19.70;97.10;;;;;;4967908;28;94875;-44
2023/09/06 06:43:47;;;;;;;107.45;57.78;;;19.80;96.50;;;;;;4957091;28;98162;-46
2023/09/06 06:46:32;;;;;;;107.85;58.05;;;19.90;96.50;;;;;;4965113;28;95311;-46
2023/09/06 06:48:59;;;;;;;108.50;58.53;;;19.90;96.50;;;;;;4958780;28;96512;-45
2023/09/06 06:51:26;;;;;;;111.65;58.20;;;20.00;96.40;;;;;;4960114;28;96088;-44
2023/09/06 06:53:52;;;;;;;109.57;57.95;;;20.00;96.70;;;;;;4964744;28;96548;-43
2023/09/06 06:56:21;;;;;;;109.35;58.30;;;20.10;96.90;;;;;;4954721;28;95802;-46
2023/09/06 06:58:50;;;;;;;108.53;58.17;;;20.30;96.30;;;;;;4961596;28;98879;-45
2023/09/06 07:01:16;;;;;;;110.32;58.42;;;20.40;96.40;;;;;;4936465;28;96495;-46
2023/09/06 07:03:42;;;;;;;112.32;58.40;;;20.60;95.70;;;;;;4963886;28;95672;-44
2023/09/06 07:06:08;;;;;;;110.47;58.20;;;20.70;94.70;;;;;;4953667;28;96169;-46
2023/09/06 07:08:35;;;;;;;111.60;58.95;;;20.70;94.90;;;;;;4954366;28;95951;-44
2023/09/06 07:11:03;;;;;;;111.78;58.40;;;20.80;94.80;;;;;;4956815;28;95142;-45
2023/09/06 07:13:29;;;;;;;107.13;59.03;;;20.90;94.50;;;;;;4957084;28;95523;-49
2023/09/06 07:15:55;;;;;;;112.82;58.88;;;21.10;94.00;;;;;;4968165;28;95366;-52
2023/09/06 07:18:21;;;;;;;119.72;58.88;;;21.10;93.80;;;;;;4960183;28;98520;-44
2023/09/06 07:20:47;;;;;;;120.18;59.08;;;21.10;93.60;;;;;;4957614;28;95005;-54
2023/09/06 07:23:13;;;;;;;112.22;57.92;;;21.10;93.30;;;;;;4951226;28;99948;-50
2023/09/06 07:25:39;;;;;;;121.20;58.50;;;21.20;93.10;;;;;;4968346;28;95224;-46
2023/09/06 07:28:05;;;;;;;115.00;58.10;;;21.10;92.70;;;;;;4959910;28;97109;-52
2023/09/06 07:30:31;;;;;;;122.63;59.03;;;21.10;93.10;;;;;;4967117;28;94830;-46
2023/09/06 07:32:56;;;;;;;115.88;58.25;;;21.20;93.10;;;;;;4958878;28;100286;-48
2023/09/06 07:35:22;;;;;;;123.82;58.53;;;21.20;92.70;;;;;;4953554;28;95547;-44
2023/09/06 07:37:48;;;;;;;117.72;58.70;;;21.30;92.20;;;;;;4959732;28;97368;-46
2023/09/06 07:40:13;;;;;;;112.57;57.85;;;21.40;92.50;;;;;;4953630;28;96716;-46
2023/09/06 07:42:40;;;;;;;114.45;58.50;;;21.50;92.50;;;;;;4966818;28;96472;-45
2023/09/06 07:45:07;;;;;;;114.72;58.35;;;21.60;92.00;;;;;;4962108;28;94697;-45
2023/09/06 07:47:33;;;;;;;119.30;58.08;;;21.60;91.00;;;;;;4963562;28;96380;-44
2023/09/06 07:49:58;;;;;;;116.07;58.00;;;21.70;90.50;;;;;;4944337;28;94473;-44
2023/09/06 07:52:24;;;;;;;112.22;58.15;;;21.80;90.70;;;;;;4962241;28;94757;-46
2023/09/06 07:54:50;;;;;;;112.28;57.85;;;21.90;90.70;;;;;;4962314;28;95605;-47
2023/09/06 07:57:15;;;;;;;112.53;58.13;;;22.00;90.40;;;;;;4958127;28;95834;-48
2023/09/06 07:59:41;;;;;;;119.57;58.13;;;22.00;88.90;;;;;;4962557;28;95187;-44
2023/09/06 08:02:06;;;;;;;112.72;57.97;;;22.10;89.10;;;;;;4956256;28;95756;-45
2023/09/06 08:04:32;;;;;;;117.63;57.45;;;22.10;89.10;;;;;;4955636;28;95196;-46
2023/09/06 08:06:58;;;;;;;118.50;58.45;;;22.20;88.10;;;;;;4959309;28;95460;-45
2023/09/06 08:09:24;;;;;;;113.65;57.95;;;22.30;88.20;;;;;;4959834;28;95561;-45
2023/09/06 08:11:49;;;;;;;113.63;57.45;;;22.30;87.10;;;;;;4962542;28;95399;-47
2023/09/06 08:14:15;;;;;;;118.40;58.33;;;22.40;85.80;;;;;;4960596;28;96607;-50
2023/09/06 08:16:41;;;;;;;115.18;58.75;;;22.50;88.20;;;;;;4962288;28;95299;-47
2023/09/06 08:19:07;;;;;;;112.03;58.22;;;22.50;87.30;;;;;;4969226;28;95763;-49
2023/09/06 08:21:34;;;;;;;116.57;58.13;;;22.50;87.00;;;;;;4970050;28;97066;-48
2023/09/06 08:24:01;;;;;;;112.50;57.92;;;22.60;86.20;;;;;;4965242;28;95691;-48
2023/09/06 08:26:27;;;;;;;124.90;58.25;;;22.70;80.00;;;;;;4959646;28;95026;-47
2023/09/06 08:28:53;;;;;;;116.70;57.55;;;22.70;83.20;;;;;;4964618;28;94690;-44
2023/09/06 08:31:19;;;;;;;121.43;57.58;;;22.80;84.50;;;;;;4968105;28;100736;-44
2023/09/06 08:33:44;;;;;;;109.38;57.28;;;22.80;83.40;;;;;;4964556;28;97407;-44
2023/09/06 08:36:11;;;;;;;112.15;58.28;;;22.80;82.00;;;;;;4968949;28;94828;-44
2023/09/06 08:38:39;;;;;;;113.43;58.75;;;22.80;84.00;;;;;;4960926;28;96630;-46
2023/09/06 08:41:07;;;;;;;113.03;57.97;;;22.90;85.00;;;;;;4965021;28;95392;-46
2023/09/06 08:43:36;;;;;;;109.97;57.45;;;22.90;82.30;;;;;;4957671;28;101703;-45
2023/09/06 08:46:22;;;;;;;112.95;58.08;;;22.90;85.30;;;;;;4956819;28;98690;-48
2023/09/06 08:48:49;;;;;;;114.50;58.05;;;23.00;82.90;;;;;;4965856;28;95307;-45
2023/09/06 08:51:15;;;;;;;119.70;58.50;;;23.10;81.80;;;;;;4953852;28;95694;-45
2023/09/06 08:53:43;;;;;;;110.80;57.75;;;23.10;81.30;;;;;;4960962;28;94652;-46
2023/09/06 08:56:10;;;;;;;113.85;58.35;;;23.20;83.10;;;;;;4955093;28;96768;-46
2023/09/06 08:58:35;;;;;;;111.68;57.72;;;23.20;84.90;;;;;;4967413;28;99199;-45
2023/09/06 09:01:04;;;;;;;110.13;57.25;;;23.20;86.50;;;;;;4962549;28;99116;-45
2023/09/06 09:03:31;;;;;;;111.57;57.97;;;23.20;87.10;;;;;;4959038;28;95009;-45
2023/09/06 09:06:00;;;;;;;112.03;57.72;;;23.30;87.70;;;;;;4961799;28;95397;-50
2023/09/06 09:08:30;;;;;;;110.55;58.10;;;23.30;87.60;;;;;;4959463;28;95742;-50
2023/09/06 09:11:21;;;;;;;111.70;57.83;;;23.30;87.60;;;;;;4954934;28;96284;-54
2023/09/06 09:13:46;;;;;;;111.65;58.20;;;23.40;87.70;;;;;;4953688;28;96364;-54
2023/09/06 09:16:14;;;;;;;117.72;58.35;;;23.40;87.50;;;;;;4961488;28;95489;-51
2023/09/06 09:18:41;;;;;;;110.68;58.22;;;23.50;87.50;;;;;;4953748;28;95062;-45
2023/09/06 09:21:09;;;;;;;109.90;58.25;;;23.50;87.20;;;;;;4950194;28;96340;-48
2023/09/06 09:23:49;;;;;;;114.00;57.63;;;23.50;87.30;;;;;;4956001;28;95152;-54
2023/09/06 09:26:19;;;;;;;114.55;57.78;;;23.60;87.00;;;;;;4954898;28;96413;-49
2023/09/06 09:28:45;;;;;;;111.32;57.95;;;23.60;87.10;;;;;;4960589;28;94567;-52
2023/09/06 09:31:14;;;;;;;109.55;58.28;;;23.70;86.90;;;;;;4961593;28;95417;-52
2023/09/06 09:33:40;;;;;;;114.32;57.97;;;23.70;86.40;;;;;;4945595;28;95897;-47
2023/09/06 09:36:07;;;;;;;111.88;58.08;;;23.70;86.40;;;;;;4956147;28;96850;-47
2023/09/06 09:38:33;;;;;;;110.88;57.72;;;23.80;86.60;;;;;;4961558;28;94977;-48
2023/09/06 09:41:06;;;;;;;113.15;57.92;;;23.80;86.50;;;;;;4961834;28;95478;-48
2023/09/06 09:43:32;;;;;;;113.53;58.03;;;23.80;86.40;;;;;;4958272;28;97843;-48
2023/09/06 09:45:58;;;;;;;111.63;58.00;;;23.90;86.00;;;;;;4958558;28;96264;-50
2023/09/06 09:48:29;;;;;;;109.60;57.80;;;24.00;86.20;;;;;;4951081;28;97774;-51
2023/09/06 09:50:55;;;;;;;;;;;24.00;85.70;;;;;;4953755;28;97208;-51
2023/09/06 09:53:23;;;;;;;108.53;57.97;;;24.00;85.60;;;;;;4964715;28;94587;-56
2023/09/06 09:55:52;;;;;;;111.78;57.90;;;24.10;86.10;;;;;;4960225;28;98562;-47
2023/09/06 09:58:19;;;;;;;111.82;58.10;;;24.10;85.80;;;;;;4968193;28;95042;-46
2023/09/06 10:00:45;;;;;;;113.03;58.28;;;24.10;85.80;;;;;;4960808;28;96387;-50
2023/09/06 10:03:13;;;;;;;110.88;57.55;;;24.20;85.80;;;;;;4957698;28;97069;-47
2023/09/06 10:05:40;;;;;;;110.95;58.35;;;24.20;85.30;;;;;;4968340;28;95653;-55
2023/09/06 10:08:09;;;;;;;110.15;58.17;;;24.20;85.20;;;;;;4960800;28;95394;-48
2023/09/06 10:10:39;;;;;;;111.65;58.35;;;24.30;85.40;;;;;;4956467;28;97038;-53
2023/09/06 10:13:07;;;;;;;112.13;58.08;;;24.30;85.30;;;;;;4956657;28;95300;-50
2023/09/06 10:15:34;;;;;;;112.53;58.22;;;24.30;85.10;;;;;;4956529;28;96074;-54
2023/09/06 10:18:00;;;;;;;110.90;58.30;;;24.40;84.90;;;;;;4963309;28;95130;-50
2023/09/06 10:20:30;;;;;;;113.85;58.63;;;24.40;85.00;;;;;;4961078;28;97132;-51
2023/09/06 10:22:57;;;;;;;109.95;58.50;;;24.40;84.30;;;;;;4961437;28;95415;-56
2023/09/06 10:25:25;;;;;;;110.13;58.03;;;24.40;84.00;;;;;;4961784;28;97350;-53
2023/09/06 10:27:55;;;;;;;111.57;58.17;;;24.50;84.30;;;;;;4961965;28;96051;-46
2023/09/06 10:30:34;;;;;;;110.40;58.17;;;24.50;84.60;;;;;;4948426;28;100266;-44
2023/09/06 10:33:02;;;;;;;111.20;58.40;;;24.50;84.10;;;;;;4956973;28;95781;-49
2023/09/06 10:35:31;;;;;;;109.30;58.10;;;24.60;84.20;;;;;;4946089;28;95891;-56
2023/09/06 10:38:14;;;;;;;110.55;58.20;;;24.60;83.70;;;;;;4960641;28;95392;-53
2023/09/06 10:40:49;;;;;;;109.07;57.78;;;24.70;83.60;;;;;;4965633;28;95400;-55
2023/09/06 10:43:20;;;;;;;112.68;58.33;;;24.70;84.30;;;;;;4959947;28;94709;-55
2023/09/06 10:46:26;;;;;;;111.25;58.20;;;24.70;85.00;;;;;;4961350;28;96787;-53
2023/09/06 10:49:25;;;;;;;110.18;58.17;;;24.70;84.40;;;;;;4962870;28;96755;-54
2023/09/06 10:52:01;;;;;;;110.25;57.90;;;24.80;84.60;;;;;;4912142;28;100874;-52
2023/09/06 10:54:41;;;;;;;114.00;58.60;;;24.80;84.10;;;;;;4958512;28;96627;-55
2023/09/06 10:57:11;;;;;;;111.20;58.38;;;24.80;84.50;;;;;;4951548;28;98132;-54
2023/09/06 10:59:44;;;;;;;111.35;58.15;;;24.90;85.50;;;;;;4960709;28;95989;-52
2023/09/06 11:02:23;;;;;;;110.10;58.72;;;24.90;84.10;;;;;;4951333;28;99106;-52
2023/09/06 11:04:49;;;;;;;110.05;58.78;;;25.00;83.50;;;;;;4935070;28;100577;-52
2023/09/06 11:07:15;;;;;;;111.65;58.50;;;25.00;83.90;;;;;;4961026;28;96093;-54
2023/09/06 11:09:43;;;;;;;112.95;58.60;;;25.10;83.30;;;;;;4963523;28;97076;-52
2023/09/06 11:12:16;;;;;;;113.90;58.78;;;25.10;81.20;;;;;;4961720;28;95605;-49
2023/09/06 11:14:46;;;;;;;111.57;58.25;;;25.20;81.00;;;;;;4964655;28;95757;-47
2023/09/06 11:17:22;;;;;;;109.47;58.33;;;25.20;81.60;;;;;;4968307;28;100084;-47
2023/09/06 11:19:48;;;;;;;110.60;58.55;;;25.20;79.40;;;;;;4968065;28;100281;-48
2023/09/06 11:22:13;;;;;;;111.47;58.58;;;25.20;76.90;;;;;;4964301;28;98165;-48
2023/09/06 11:24:39;;;;;;;109.93;58.28;;;25.20;76.00;;;;;;4962875;28;97089;-47
2023/09/06 11:27:33;;;;;;;112.57;58.35;;;25.20;73.30;;;;;;4967025;28;96214;-54
2023/09/06 11:30:10;;;;;;;110.45;58.33;;;25.20;71.20;;;;;;4966524;28;95223;-51
2023/09/06 11:32:39;;;;;;;114.43;58.15;;;25.20;69.60;;;;;;4959798;28;98471;-48
2023/09/06 11:35:08;;;;;;;110.53;58.20;;;25.20;68.40;;;;;;4961447;28;98758;-55
2023/09/06 11:37:37;;;;;;;110.57;57.90;;;25.20;67.50;;;;;;4962269;28;100154;-49
2023/09/06 11:40:15;;;;;;;109.25;58.58;;;25.20;66.70;;;;;;4964369;28;95276;-46
2023/09/06 11:42:47;;;;;;;110.35;58.15;;;25.20;66.70;;;;;;4963793;28;97346;-47
2023/09/06 11:45:17;;;;;;;113.15;58.25;;;25.20;65.40;;;;;;4960705;28;96137;-44
2023/09/06 11:47:44;;;;;;;111.00;58.22;;;25.20;64.70;;;;;;4971097;28;100262;-47
2023/09/06 11:50:12;;;;;;;109.53;58.08;;;25.30;64.00;;;;;;4962563;28;95185;-46
2023/09/06 11:52:43;;;;;;;108.32;57.90;;;25.20;62.70;;;;;;4954056;28;96276;-46
2023/09/06 11:55:08;;;;;;;109.07;58.17;;;25.20;61.00;;;;;;4968933;28;95170;-48
2023/09/06 11:57:37;;;;;;;111.75;58.20;;;25.20;59.60;;;;;;4954905;28;95961;-49
2023/09/06 12:00:18;;;;;;;109.25;58.03;;;25.20;59.70;;;;;;4955796;28;94858;-47
2023/09/06 12:02:47;;;;;;;107.50;57.63;;;25.20;59.40;;;;;;4952939;28;97972;-45
2023/09/06 12:05:14;;;;;;;111.13;57.90;;;25.20;58.60;;;;;;4961960;28;95709;-45
2023/09/06 12:07:43;;;;;;;110.50;57.63;;;25.20;57.70;;;;;;4961111;28;97811;-49
2023/09/06 12:10:09;;;;;;;110.55;58.25;;;25.10;56.80;;;;;;4965527;28;95002;-46
2023/09/06 12:12:44;;;;;;;115.45;57.72;;;25.20;56.60;;;;;;4963067;28;95552;-53
2023/09/06 12:15:22;;;;;;;112.47;58.40;;;25.10;56.30;;;;;;4960610;28;97697;-51
2023/09/06 12:17:49;;;;;;;111.20;57.55;;;25.20;55.80;;;;;;4957907;28;96673;-57
2023/09/06 12:20:25;;;;;;;109.95;57.88;;;25.20;54.80;;;;;;4953306;28;95738;-54
2023/09/06 12:22:52;;;;;;;110.38;57.72;;;25.20;54.20;;;;;;4964240;28;95827;-51
2023/09/06 12:25:19;;;;;;;108.80;57.60;;;25.10;54.00;;;;;;4962896;28;94123;-48
2023/09/06 12:27:46;;;;;;;110.63;57.90;;;25.20;54.00;;;;;;4951320;28;97506;-48